sensor_id;sensor_type;location;lat;lon;timestamp;temperature;humidity
17442;DHT22;8838;50.144;8.176;2024-01-07T00:01:08;2.70;99.90
17442;DHT22;8838;50.144;8.176;2024-01-07T00:03:35;2.70;99.90
17442;DHT22;8838;50.144;8.176;2024-01-07T00:06:02;2.60;99.90
17442;DHT22;8838;50.144;8.176;2024-01-07T00:08:29;2.60;99.90
17442;DHT22;8838;50.144;8.176;2024-01-07T00:10:56;2.60;99.90
17442;DHT22;8838;50.144;8.176;2024-01-07T00:13:23;2.60;99.90
17442;DHT22;8838;50.144;8.176;2024-01-07T00:15:50;2.60;99.90
17442;DHT22;8838;50.144;8.176;2024-01-07T00:18:19;2.60;99.90
17442;DHT22;8838;50.144;8.176;2024-01-07T00:20:46;2.60;99.90
17442;DHT22;8838;50.144;8.176;2024-01-07T00:23:12;2.60;99.90
17442;DHT22;8838;50.144;8.176;2024-01-07T00:25:40;2.60;99.90
17442;DHT22;8838;50.144;8.176;2024-01-07T00:28:07;2.60;99.90
17442;DHT22;8838;50.144;8.176;2024-01-07T00:30:34;2.60;99.90
17442;DHT22;8838;50.144;8.176;2024-01-07T00:33:01;2.60;99.90
17442;DHT22;8838;50.144;8.176;2024-01-07T00:35:30;2.50;99.90
17442;DHT22;8838;50.144;8.176;2024-01-07T00:37:56;2.50;99.90
17442;DHT22;8838;50.144;8.176;2024-01-07T00:40:24;2.50;99.90
17442;DHT22;8838;50.144;8.176;2024-01-07T00:42:51;2.50;99.90
17442;DHT22;8838;50.144;8.176;2024-01-07T00:45:19;2.50;99.90
17442;DHT22;8838;50.144;8.176;2024-01-07T00:47:47;2.50;99.90
17442;DHT22;8838;50.144;8.176;2024-01-07T00:50:14;2.50;99.90
17442;DHT22;8838;50.144;8.176;2024-01-07T00:52:42;2.40;99.90
17442;DHT22;8838;50.144;8.176;2024-01-07T00:55:10;2.50;99.90
17442;DHT22;8838;50.144;8.176;2024-01-07T00:57:36;2.50;99.90
17442;DHT22;8838;50.144;8.176;2024-01-07T01:00:05;2.50;99.90
17442;DHT22;8838;50.144;8.176;2024-01-07T01:02:32;2.50;99.90
17442;DHT22;8838;50.144;8.176;2024-01-07T01:05:01;2.50;99.90
17442;DHT22;8838;50.144;8.176;2024-01-07T01:07:28;2.50;99.90
17442;DHT22;8838;50.144;8.176;2024-01-07T01:09:58;2.50;99.90
17442;DHT22;8838;50.144;8.176;2024-01-07T01:12:24;2.50;99.90
17442;DHT22;8838;50.144;8.176;2024-01-07T01:14:52;2.50;99.90
17442;DHT22;8838;50.144;8.176;2024-01-07T01:17:19;2.50;99.90
17442;DHT22;8838;50.144;8.176;2024-01-07T01:19:45;2.50;99.90
17442;DHT22;8838;50.144;8.176;2024-01-07T01:22:12;2.50;99.90
17442;DHT22;8838;50.144;8.176;2024-01-07T01:24:39;2.50;99.90
17442;DHT22;8838;50.144;8.176;2024-01-07T01:27:08;2.50;99.90
17442;DHT22;8838;50.144;8.176;2024-01-07T01:29:36;2.50;99.90
17442;DHT22;8838;50.144;8.176;2024-01-07T01:32:03;2.50;99.90
17442;DHT22;8838;50.144;8.176;2024-01-07T01:34:31;2.50;99.90
17442;DHT22;8838;50.144;8.176;2024-01-07T01:36:58;2.40;99.90
17442;DHT22;8838;50.144;8.176;2024-01-07T01:39:25;2.30;99.90
17442;DHT22;8838;50.144;8.176;2024-01-07T01:41:52;2.40;99.90
17442;DHT22;8838;50.144;8.176;2024-01-07T01:44:20;2.40;99.90
17442;DHT22;8838;50.144;8.176;2024-01-07T01:46:47;2.40;99.90
17442;DHT22;8838;50.144;8.176;2024-01-07T01:49:15;2.40;99.90
17442;DHT22;8838;50.144;8.176;2024-01-07T01:51:42;2.40;99.90
17442;DHT22;8838;50.144;8.176;2024-01-07T01:54:10;2.40;99.90
17442;DHT22;8838;50.144;8.176;2024-01-07T01:56:37;2.30;99.90
17442;DHT22;8838;50.144;8.176;2024-01-07T01:59:04;2.30;99.90
17442;DHT22;8838;50.144;8.176;2024-01-07T02:01:32;2.30;99.90
17442;DHT22;8838;50.144;8.176;2024-01-07T02:03:59;2.30;99.90
17442;DHT22;8838;50.144;8.176;2024-01-07T02:06:26;2.30;99.90
17442;DHT22;8838;50.144;8.176;2024-01-07T02:08:53;2.30;99.90
17442;DHT22;8838;50.144;8.176;2024-01-07T02:11:19;2.30;99.90
17442;DHT22;8838;50.144;8.176;2024-01-07T02:13:47;2.30;99.90
17442;DHT22;8838;50.144;8.176;2024-01-07T02:16:14;2.30;99.90
17442;DHT22;8838;50.144;8.176;2024-01-07T02:18:44;2.30;99.90
17442;DHT22;8838;50.144;8.176;2024-01-07T02:21:13;2.30;99.90
17442;DHT22;8838;50.144;8.176;2024-01-07T02:23:40;2.30;99.90
17442;DHT22;8838;50.144;8.176;2024-01-07T02:26:08;2.30;99.90
17442;DHT22;8838;50.144;8.176;2024-01-07T02:28:35;2.30;99.90
17442;DHT22;8838;50.144;8.176;2024-01-07T02:31:02;2.30;99.90
17442;DHT22;8838;50.144;8.176;2024-01-07T02:33:29;2.20;99.90
17442;DHT22;8838;50.144;8.176;2024-01-07T02:35:56;2.20;99.90
17442;DHT22;8838;50.144;8.176;2024-01-07T02:38:23;2.20;99.90
17442;DHT22;8838;50.144;8.176;2024-01-07T02:40:50;2.20;99.90
17442;DHT22;8838;50.144;8.176;2024-01-07T02:43:18;2.20;99.90
17442;DHT22;8838;50.144;8.176;2024-01-07T02:45:45;2.20;99.90
17442;DHT22;8838;50.144;8.176;2024-01-07T02:48:12;2.20;99.90
17442;DHT22;8838;50.144;8.176;2024-01-07T02:50:39;2.20;99.90
17442;DHT22;8838;50.144;8.176;2024-01-07T02:53:06;2.30;99.90
17442;DHT22;8838;50.144;8.176;2024-01-07T02:55:36;2.30;99.90
17442;DHT22;8838;50.144;8.176;2024-01-07T02:58:04;2.30;99.90
17442;DHT22;8838;50.144;8.176;2024-01-07T03:00:32;2.30;99.90
17442;DHT22;8838;50.144;8.176;2024-01-07T03:02:59;2.30;99.90
17442;DHT22;8838;50.144;8.176;2024-01-07T03:05:25;2.30;99.90
17442;DHT22;8838;50.144;8.176;2024-01-07T03:07:54;2.30;99.90
17442;DHT22;8838;50.144;8.176;2024-01-07T03:10:21;2.30;99.90
17442;DHT22;8838;50.144;8.176;2024-01-07T03:12:48;2.20;99.90
17442;DHT22;8838;50.144;8.176;2024-01-07T03:15:15;2.20;99.90
17442;DHT22;8838;50.144;8.176;2024-01-07T03:17:43;2.20;99.90
17442;DHT22;8838;50.144;8.176;2024-01-07T03:20:11;2.20;99.90
17442;DHT22;8838;50.144;8.176;2024-01-07T03:22:38;2.30;99.90
17442;DHT22;8838;50.144;8.176;2024-01-07T03:25:06;2.30;99.90
17442;DHT22;8838;50.144;8.176;2024-01-07T03:27:33;2.20;99.90
17442;DHT22;8838;50.144;8.176;2024-01-07T03:30:00;2.20;99.90
17442;DHT22;8838;50.144;8.176;2024-01-07T03:32:29;2.20;99.90
17442;DHT22;8838;50.144;8.176;2024-01-07T03:34:57;2.20;99.90
17442;DHT22;8838;50.144;8.176;2024-01-07T03:37:24;2.30;99.90
17442;DHT22;8838;50.144;8.176;2024-01-07T03:39:51;2.30;99.90
17442;DHT22;8838;50.144;8.176;2024-01-07T03:42:18;2.20;99.90
17442;DHT22;8838;50.144;8.176;2024-01-07T03:44:45;2.20;99.90
17442;DHT22;8838;50.144;8.176;2024-01-07T03:47:11;2.20;99.90
17442;DHT22;8838;50.144;8.176;2024-01-07T03:49:38;2.20;99.90
17442;DHT22;8838;50.144;8.176;2024-01-07T03:52:07;2.20;99.90
17442;DHT22;8838;50.144;8.176;2024-01-07T03:54:34;2.30;99.90
17442;DHT22;8838;50.144;8.176;2024-01-07T03:57:01;2.30;99.90
17442;DHT22;8838;50.144;8.176;2024-01-07T03:59:28;2.30;99.90
17442;DHT22;8838;50.144;8.176;2024-01-07T04:01:56;2.40;99.90
17442;DHT22;8838;50.144;8.176;2024-01-07T04:04:23;2.40;99.90
17442;DHT22;8838;50.144;8.176;2024-01-07T04:06:50;2.40;99.90
17442;DHT22;8838;50.144;8.176;2024-01-07T04:09:18;2.50;99.90
17442;DHT22;8838;50.144;8.176;2024-01-07T04:11:45;2.50;99.90
17442;DHT22;8838;50.144;8.176;2024-01-07T04:14:14;2.40;99.90
17442;DHT22;8838;50.144;8.176;2024-01-07T04:16:41;2.50;99.90
17442;DHT22;8838;50.144;8.176;2024-01-07T04:19:08;2.40;99.90
17442;DHT22;8838;50.144;8.176;2024-01-07T04:21:35;2.40;99.90
17442;DHT22;8838;50.144;8.176;2024-01-07T04:24:02;2.40;99.90
17442;DHT22;8838;50.144;8.176;2024-01-07T04:26:30;2.40;99.90
17442;DHT22;8838;50.144;8.176;2024-01-07T04:28:57;2.50;99.90
17442;DHT22;8838;50.144;8.176;2024-01-07T04:31:24;2.50;99.90
17442;DHT22;8838;50.144;8.176;2024-01-07T04:33:51;2.40;99.90
17442;DHT22;8838;50.144;8.176;2024-01-07T04:36:17;2.50;99.90
17442;DHT22;8838;50.144;8.176;2024-01-07T04:38:44;2.50;99.90
17442;DHT22;8838;50.144;8.176;2024-01-07T04:41:11;2.40;99.90
17442;DHT22;8838;50.144;8.176;2024-01-07T04:43:42;2.30;99.90
17442;DHT22;8838;50.144;8.176;2024-01-07T04:46:10;2.40;99.90
17442;DHT22;8838;50.144;8.176;2024-01-07T04:48:37;2.30;99.90
17442;DHT22;8838;50.144;8.176;2024-01-07T04:51:04;2.30;99.90
17442;DHT22;8838;50.144;8.176;2024-01-07T04:53:31;2.30;99.90
17442;DHT22;8838;50.144;8.176;2024-01-07T04:55:58;2.30;99.90
17442;DHT22;8838;50.144;8.176;2024-01-07T04:58:25;2.40;99.90
17442;DHT22;8838;50.144;8.176;2024-01-07T05:00:53;2.40;99.90
17442;DHT22;8838;50.144;8.176;2024-01-07T05:03:20;2.40;99.90
17442;DHT22;8838;50.144;8.176;2024-01-07T05:05:47;2.40;99.90
17442;DHT22;8838;50.144;8.176;2024-01-07T05:08:14;2.40;99.90
17442;DHT22;8838;50.144;8.176;2024-01-07T05:10:41;2.40;99.90
17442;DHT22;8838;50.144;8.176;2024-01-07T05:13:08;2.40;99.90
17442;DHT22;8838;50.144;8.176;2024-01-07T05:15:35;2.40;99.90
17442;DHT22;8838;50.144;8.176;2024-01-07T05:18:07;2.40;99.90
17442;DHT22;8838;50.144;8.176;2024-01-07T05:20:34;2.40;99.90
17442;DHT22;8838;50.144;8.176;2024-01-07T05:23:01;2.40;99.90
17442;DHT22;8838;50.144;8.176;2024-01-07T05:25:28;2.40;99.90
17442;DHT22;8838;50.144;8.176;2024-01-07T05:27:54;2.40;99.90
17442;DHT22;8838;50.144;8.176;2024-01-07T05:30:21;2.30;99.90
17442;DHT22;8838;50.144;8.176;2024-01-07T05:32:48;2.30;99.90
17442;DHT22;8838;50.144;8.176;2024-01-07T05:35:16;2.40;99.90
17442;DHT22;8838;50.144;8.176;2024-01-07T05:37:43;2.30;99.90
17442;DHT22;8838;50.144;8.176;2024-01-07T05:40:11;2.30;99.90
17442;DHT22;8838;50.144;8.176;2024-01-07T05:42:38;2.30;99.90
17442;DHT22;8838;50.144;8.176;2024-01-07T05:45:05;2.30;99.90
17442;DHT22;8838;50.144;8.176;2024-01-07T05:47:32;2.30;99.90
17442;DHT22;8838;50.144;8.176;2024-01-07T05:49:59;2.30;99.90
17442;DHT22;8838;50.144;8.176;2024-01-07T05:52:27;2.30;99.90
17442;DHT22;8838;50.144;8.176;2024-01-07T05:54:54;2.30;99.90
17442;DHT22;8838;50.144;8.176;2024-01-07T05:57:20;2.40;99.90
17442;DHT22;8838;50.144;8.176;2024-01-07T05:59:47;2.30;99.90
17442;DHT22;8838;50.144;8.176;2024-01-07T06:02:15;2.40;99.90
17442;DHT22;8838;50.144;8.176;2024-01-07T06:04:42;2.40;99.90
17442;DHT22;8838;50.144;8.176;2024-01-07T06:07:09;2.40;99.90
17442;DHT22;8838;50.144;8.176;2024-01-07T06:09:37;2.40;99.90
17442;DHT22;8838;50.144;8.176;2024-01-07T06:12:05;2.50;99.90
17442;DHT22;8838;50.144;8.176;2024-01-07T06:14:32;2.40;99.90
17442;DHT22;8838;50.144;8.176;2024-01-07T06:16:59;2.50;99.90
17442;DHT22;8838;50.144;8.176;2024-01-07T06:19:26;2.50;99.90
17442;DHT22;8838;50.144;8.176;2024-01-07T06:21:53;2.50;99.90
17442;DHT22;8838;50.144;8.176;2024-01-07T06:24:20;2.50;99.90
17442;DHT22;8838;50.144;8.176;2024-01-07T06:26:48;2.50;99.90
17442;DHT22;8838;50.144;8.176;2024-01-07T06:29:15;2.50;99.90
17442;DHT22;8838;50.144;8.176;2024-01-07T06:31:45;2.50;99.90
17442;DHT22;8838;50.144;8.176;2024-01-07T06:34:12;2.50;99.90
17442;DHT22;8838;50.144;8.176;2024-01-07T06:36:39;2.40;99.90
17442;DHT22;8838;50.144;8.176;2024-01-07T06:39:07;2.40;99.90
17442;DHT22;8838;50.144;8.176;2024-01-07T06:41:34;2.50;99.90
17442;DHT22;8838;50.144;8.176;2024-01-07T06:44:03;2.40;99.90
17442;DHT22;8838;50.144;8.176;2024-01-07T06:46:30;2.40;99.90
17442;DHT22;8838;50.144;8.176;2024-01-07T06:48:59;2.50;99.90
17442;DHT22;8838;50.144;8.176;2024-01-07T06:51:26;2.40;99.90
17442;DHT22;8838;50.144;8.176;2024-01-07T06:53:53;2.40;99.90
17442;DHT22;8838;50.144;8.176;2024-01-07T06:56:20;2.40;99.90
17442;DHT22;8838;50.144;8.176;2024-01-07T06:58:47;2.40;99.90
17442;DHT22;8838;50.144;8.176;2024-01-07T07:01:19;2.40;99.90
17442;DHT22;8838;50.144;8.176;2024-01-07T07:03:47;2.30;99.90
17442;DHT22;8838;50.144;8.176;2024-01-07T07:06:13;2.30;99.90
17442;DHT22;8838;50.144;8.176;2024-01-07T07:08:40;2.30;99.90
17442;DHT22;8838;50.144;8.176;2024-01-07T07:11:07;2.30;99.90
17442;DHT22;8838;50.144;8.176;2024-01-07T07:13:34;2.30;99.90
17442;DHT22;8838;50.144;8.176;2024-01-07T07:16:01;2.30;99.90
17442;DHT22;8838;50.144;8.176;2024-01-07T07:18:29;2.30;99.90
17442;DHT22;8838;50.144;8.176;2024-01-07T07:20:56;2.30;99.90
17442;DHT22;8838;50.144;8.176;2024-01-07T07:23:23;2.30;99.90
17442;DHT22;8838;50.144;8.176;2024-01-07T07:25:51;2.30;99.90
17442;DHT22;8838;50.144;8.176;2024-01-07T07:28:17;2.30;99.90
17442;DHT22;8838;50.144;8.176;2024-01-07T07:30:44;2.20;99.90
17442;DHT22;8838;50.144;8.176;2024-01-07T07:33:11;2.20;99.90
17442;DHT22;8838;50.144;8.176;2024-01-07T07:35:40;2.20;99.90
17442;DHT22;8838;50.144;8.176;2024-01-07T07:38:07;2.30;99.90
17442;DHT22;8838;50.144;8.176;2024-01-07T07:40:34;2.20;99.90
17442;DHT22;8838;50.144;8.176;2024-01-07T07:43:01;2.20;99.90
17442;DHT22;8838;50.144;8.176;2024-01-07T07:45:28;2.30;99.90
17442;DHT22;8838;50.144;8.176;2024-01-07T07:47:55;2.30;99.90
17442;DHT22;8838;50.144;8.176;2024-01-07T07:50:22;2.30;99.90
17442;DHT22;8838;50.144;8.176;2024-01-07T07:52:50;2.30;99.90
17442;DHT22;8838;50.144;8.176;2024-01-07T07:55:17;2.30;99.90
17442;DHT22;8838;50.144;8.176;2024-01-07T07:57:44;2.30;99.90
17442;DHT22;8838;50.144;8.176;2024-01-07T08:00:12;2.40;99.90
17442;DHT22;8838;50.144;8.176;2024-01-07T08:02:39;2.40;99.90
17442;DHT22;8838;50.144;8.176;2024-01-07T08:05:06;2.50;99.90
17442;DHT22;8838;50.144;8.176;2024-01-07T08:07:33;2.50;99.90
17442;DHT22;8838;50.144;8.176;2024-01-07T08:10:01;2.50;99.90
17442;DHT22;8838;50.144;8.176;2024-01-07T08:12:28;2.60;99.90
17442;DHT22;8838;50.144;8.176;2024-01-07T08:14:55;2.50;99.90
17442;DHT22;8838;50.144;8.176;2024-01-07T08:17:22;2.50;99.90
17442;DHT22;8838;50.144;8.176;2024-01-07T08:19:49;2.50;99.90
17442;DHT22;8838;50.144;8.176;2024-01-07T08:22:17;2.50;99.90
17442;DHT22;8838;50.144;8.176;2024-01-07T08:24:44;2.50;99.90
17442;DHT22;8838;50.144;8.176;2024-01-07T08:27:12;2.50;99.90
17442;DHT22;8838;50.144;8.176;2024-01-07T08:29:41;2.60;99.90
17442;DHT22;8838;50.144;8.176;2024-01-07T08:32:09;2.60;99.90
17442;DHT22;8838;50.144;8.176;2024-01-07T08:34:37;2.50;99.90
17442;DHT22;8838;50.144;8.176;2024-01-07T08:37:07;2.50;99.90
17442;DHT22;8838;50.144;8.176;2024-01-07T08:39:34;2.60;99.90
17442;DHT22;8838;50.144;8.176;2024-01-07T08:42:01;2.50;99.90
17442;DHT22;8838;50.144;8.176;2024-01-07T08:44:30;2.40;99.90
17442;DHT22;8838;50.144;8.176;2024-01-07T08:46:58;2.40;99.90
17442;DHT22;8838;50.144;8.176;2024-01-07T08:49:27;2.40;99.90
17442;DHT22;8838;50.144;8.176;2024-01-07T08:51:54;2.50;99.90
17442;DHT22;8838;50.144;8.176;2024-01-07T08:54:22;2.50;99.90
17442;DHT22;8838;50.144;8.176;2024-01-07T08:56:51;2.40;99.90
17442;DHT22;8838;50.144;8.176;2024-01-07T08:59:18;2.40;99.90
17442;DHT22;8838;50.144;8.176;2024-01-07T09:01:47;2.30;99.90
17442;DHT22;8838;50.144;8.176;2024-01-07T09:04:13;2.30;99.90
17442;DHT22;8838;50.144;8.176;2024-01-07T09:06:42;2.20;99.90
17442;DHT22;8838;50.144;8.176;2024-01-07T09:09:09;2.20;99.90
17442;DHT22;8838;50.144;8.176;2024-01-07T09:11:37;2.10;99.90
17442;DHT22;8838;50.144;8.176;2024-01-07T09:14:04;2.10;99.90
17442;DHT22;8838;50.144;8.176;2024-01-07T09:16:31;2.10;99.90
17442;DHT22;8838;50.144;8.176;2024-01-07T09:18:59;2.00;99.90
17442;DHT22;8838;50.144;8.176;2024-01-07T09:21:27;2.10;99.90
17442;DHT22;8838;50.144;8.176;2024-01-07T09:23:54;2.10;99.90
17442;DHT22;8838;50.144;8.176;2024-01-07T09:26:20;2.10;99.90
17442;DHT22;8838;50.144;8.176;2024-01-07T09:28:47;2.10;99.90
17442;DHT22;8838;50.144;8.176;2024-01-07T09:31:14;2.10;99.90
17442;DHT22;8838;50.144;8.176;2024-01-07T09:33:41;2.10;99.90
17442;DHT22;8838;50.144;8.176;2024-01-07T09:36:11;2.10;99.90
17442;DHT22;8838;50.144;8.176;2024-01-07T09:38:38;2.00;99.90
17442;DHT22;8838;50.144;8.176;2024-01-07T09:41:06;2.00;99.90
17442;DHT22;8838;50.144;8.176;2024-01-07T09:43:33;2.00;99.90
17442;DHT22;8838;50.144;8.176;2024-01-07T09:46:02;2.00;99.90
17442;DHT22;8838;50.144;8.176;2024-01-07T09:48:29;2.00;99.90
17442;DHT22;8838;50.144;8.176;2024-01-07T09:50:57;2.00;99.90
17442;DHT22;8838;50.144;8.176;2024-01-07T09:53:31;2.00;99.90
17442;DHT22;8838;50.144;8.176;2024-01-07T09:56:05;2.00;99.90
17442;DHT22;8838;50.144;8.176;2024-01-07T09:58:33;2.10;99.90
17442;DHT22;8838;50.144;8.176;2024-01-07T10:01:00;2.00;99.90
17442;DHT22;8838;50.144;8.176;2024-01-07T10:03:27;2.00;99.90
17442;DHT22;8838;50.144;8.176;2024-01-07T10:05:54;2.00;99.90
17442;DHT22;8838;50.144;8.176;2024-01-07T10:08:20;2.00;99.90
17442;DHT22;8838;50.144;8.176;2024-01-07T10:10:50;2.00;99.90
17442;DHT22;8838;50.144;8.176;2024-01-07T10:13:16;2.00;99.90
17442;DHT22;8838;50.144;8.176;2024-01-07T10:15:43;1.90;99.90
17442;DHT22;8838;50.144;8.176;2024-01-07T10:18:11;1.90;99.90
17442;DHT22;8838;50.144;8.176;2024-01-07T10:20:38;1.90;99.90
17442;DHT22;8838;50.144;8.176;2024-01-07T10:23:04;1.90;99.90
17442;DHT22;8838;50.144;8.176;2024-01-07T10:25:33;1.80;99.90
17442;DHT22;8838;50.144;8.176;2024-01-07T10:28:03;1.80;99.90
17442;DHT22;8838;50.144;8.176;2024-01-07T10:30:30;1.80;99.90
17442;DHT22;8838;50.144;8.176;2024-01-07T10:32:57;1.90;99.90
17442;DHT22;8838;50.144;8.176;2024-01-07T10:35:29;1.90;99.90
17442;DHT22;8838;50.144;8.176;2024-01-07T10:37:57;1.90;99.90
17442;DHT22;8838;50.144;8.176;2024-01-07T10:40:26;1.90;99.90
17442;DHT22;8838;50.144;8.176;2024-01-07T10:42:55;1.90;99.90
17442;DHT22;8838;50.144;8.176;2024-01-07T10:45:23;2.00;99.90
17442;DHT22;8838;50.144;8.176;2024-01-07T10:47:51;1.90;99.90
17442;DHT22;8838;50.144;8.176;2024-01-07T10:50:21;1.80;99.90
17442;DHT22;8838;50.144;8.176;2024-01-07T10:52:49;1.80;99.90
17442;DHT22;8838;50.144;8.176;2024-01-07T10:55:18;1.80;99.90
17442;DHT22;8838;50.144;8.176;2024-01-07T10:57:47;1.80;99.90
17442;DHT22;8838;50.144;8.176;2024-01-07T11:00:16;1.80;99.90
17442;DHT22;8838;50.144;8.176;2024-01-07T11:02:57;1.80;99.90
17442;DHT22;8838;50.144;8.176;2024-01-07T11:05:30;1.70;99.90
17442;DHT22;8838;50.144;8.176;2024-01-07T11:08:07;1.60;99.90
17442;DHT22;8838;50.144;8.176;2024-01-07T11:10:41;1.70;99.90
17442;DHT22;8838;50.144;8.176;2024-01-07T11:13:09;1.80;99.90
17442;DHT22;8838;50.144;8.176;2024-01-07T11:15:52;1.80;99.90
17442;DHT22;8838;50.144;8.176;2024-01-07T11:18:22;1.70;99.90
17442;DHT22;8838;50.144;8.176;2024-01-07T11:20:49;1.70;99.90
17442;DHT22;8838;50.144;8.176;2024-01-07T11:23:30;1.60;99.90
17442;DHT22;8838;50.144;8.176;2024-01-07T11:25:58;1.60;99.90
17442;DHT22;8838;50.144;8.176;2024-01-07T11:28:45;1.60;99.90
17442;DHT22;8838;50.144;8.176;2024-01-07T11:31:13;1.60;99.90
17442;DHT22;8838;50.144;8.176;2024-01-07T11:33:43;1.50;99.90
17442;DHT22;8838;50.144;8.176;2024-01-07T11:36:11;1.50;99.90
17442;DHT22;8838;50.144;8.176;2024-01-07T11:38:42;1.50;99.90
17442;DHT22;8838;50.144;8.176;2024-01-07T11:41:11;1.50;99.90
17442;DHT22;8838;50.144;8.176;2024-01-07T11:43:52;1.50;99.90
17442;DHT22;8838;50.144;8.176;2024-01-07T11:46:19;1.50;99.90
17442;DHT22;8838;50.144;8.176;2024-01-07T11:48:48;1.60;99.90
17442;DHT22;8838;50.144;8.176;2024-01-07T11:51:15;1.60;99.90
17442;DHT22;8838;50.144;8.176;2024-01-07T11:53:46;1.70;99.90
17442;DHT22;8838;50.144;8.176;2024-01-07T11:56:13;1.70;99.90
17442;DHT22;8838;50.144;8.176;2024-01-07T11:58:40;1.60;99.90
17442;DHT22;8838;50.144;8.176;2024-01-07T12:01:07;1.60;99.90
17442;DHT22;8838;50.144;8.176;2024-01-07T12:03:34;1.50;99.90
17442;DHT22;8838;50.144;8.176;2024-01-07T12:06:03;1.60;99.90
17442;DHT22;8838;50.144;8.176;2024-01-07T12:08:30;1.60;99.90
17442;DHT22;8838;50.144;8.176;2024-01-07T12:10:57;1.60;99.90
17442;DHT22;8838;50.144;8.176;2024-01-07T12:13:26;1.70;99.90
17442;DHT22;8838;50.144;8.176;2024-01-07T12:15:53;1.60;99.90
17442;DHT22;8838;50.144;8.176;2024-01-07T12:18:20;1.50;99.90
17442;DHT22;8838;50.144;8.176;2024-01-07T12:20:55;1.50;99.90
17442;DHT22;8838;50.144;8.176;2024-01-07T12:23:24;1.50;99.90
17442;DHT22;8838;50.144;8.176;2024-01-07T12:25:51;1.50;99.90
17442;DHT22;8838;50.144;8.176;2024-01-07T12:28:20;1.40;99.90
17442;DHT22;8838;50.144;8.176;2024-01-07T12:30:47;1.40;99.90
17442;DHT22;8838;50.144;8.176;2024-01-07T12:33:17;1.40;99.90
17442;DHT22;8838;50.144;8.176;2024-01-07T12:35:45;1.40;99.90
17442;DHT22;8838;50.144;8.176;2024-01-07T12:38:12;1.40;99.90
17442;DHT22;8838;50.144;8.176;2024-01-07T12:40:41;1.50;99.90
17442;DHT22;8838;50.144;8.176;2024-01-07T12:43:08;1.40;99.90
17442;DHT22;8838;50.144;8.176;2024-01-07T12:45:35;1.40;99.90
17442;DHT22;8838;50.144;8.176;2024-01-07T12:48:03;1.40;99.90
17442;DHT22;8838;50.144;8.176;2024-01-07T12:50:31;1.40;99.90
17442;DHT22;8838;50.144;8.176;2024-01-07T12:52:58;1.40;99.90
17442;DHT22;8838;50.144;8.176;2024-01-07T12:55:26;1.30;99.90
17442;DHT22;8838;50.144;8.176;2024-01-07T12:57:54;1.40;99.90
17442;DHT22;8838;50.144;8.176;2024-01-07T13:00:23;1.30;99.90
17442;DHT22;8838;50.144;8.176;2024-01-07T13:02:50;1.30;99.90
17442;DHT22;8838;50.144;8.176;2024-01-07T13:05:17;1.30;99.90
17442;DHT22;8838;50.144;8.176;2024-01-07T13:07:45;1.20;99.90
17442;DHT22;8838;50.144;8.176;2024-01-07T13:10:12;1.20;99.90
17442;DHT22;8838;50.144;8.176;2024-01-07T13:12:40;1.20;99.90
17442;DHT22;8838;50.144;8.176;2024-01-07T13:15:09;1.20;99.90
17442;DHT22;8838;50.144;8.176;2024-01-07T13:17:38;1.20;99.90
17442;DHT22;8838;50.144;8.176;2024-01-07T13:20:06;1.20;99.90
17442;DHT22;8838;50.144;8.176;2024-01-07T13:22:36;1.30;99.90
17442;DHT22;8838;50.144;8.176;2024-01-07T13:25:04;1.30;99.90
17442;DHT22;8838;50.144;8.176;2024-01-07T13:27:34;1.20;99.90
17442;DHT22;8838;50.144;8.176;2024-01-07T13:30:01;1.10;99.90
17442;DHT22;8838;50.144;8.176;2024-01-07T13:32:30;1.10;99.90
17442;DHT22;8838;50.144;8.176;2024-01-07T13:35:01;1.10;99.90
17442;DHT22;8838;50.144;8.176;2024-01-07T13:37:28;1.00;99.90
17442;DHT22;8838;50.144;8.176;2024-01-07T13:39:56;1.00;99.90
17442;DHT22;8838;50.144;8.176;2024-01-07T13:42:23;1.00;99.90
17442;DHT22;8838;50.144;8.176;2024-01-07T13:44:50;0.90;99.90
17442;DHT22;8838;50.144;8.176;2024-01-07T13:47:17;0.90;99.90
17442;DHT22;8838;50.144;8.176;2024-01-07T13:49:45;0.90;99.90
17442;DHT22;8838;50.144;8.176;2024-01-07T13:52:12;0.80;99.90
17442;DHT22;8838;50.144;8.176;2024-01-07T13:54:39;0.70;99.90
17442;DHT22;8838;50.144;8.176;2024-01-07T13:57:06;0.70;99.90
17442;DHT22;8838;50.144;8.176;2024-01-07T13:59:33;0.70;99.90
17442;DHT22;8838;50.144;8.176;2024-01-07T14:02:00;0.70;99.90
17442;DHT22;8838;50.144;8.176;2024-01-07T14:04:28;0.70;99.90
17442;DHT22;8838;50.144;8.176;2024-01-07T14:06:57;0.70;99.90
17442;DHT22;8838;50.144;8.176;2024-01-07T14:09:24;0.80;99.90
17442;DHT22;8838;50.144;8.176;2024-01-07T14:11:51;0.80;99.90
17442;DHT22;8838;50.144;8.176;2024-01-07T14:14:18;0.70;99.90
17442;DHT22;8838;50.144;8.176;2024-01-07T14:16:46;0.70;99.90
17442;DHT22;8838;50.144;8.176;2024-01-07T14:19:13;0.60;99.90
17442;DHT22;8838;50.144;8.176;2024-01-07T14:21:41;0.50;99.90
17442;DHT22;8838;50.144;8.176;2024-01-07T14:24:09;0.40;99.90
17442;DHT22;8838;50.144;8.176;2024-01-07T14:26:36;0.50;99.90
17442;DHT22;8838;50.144;8.176;2024-01-07T14:29:03;0.50;99.90
17442;DHT22;8838;50.144;8.176;2024-01-07T14:31:30;0.40;99.90
17442;DHT22;8838;50.144;8.176;2024-01-07T14:33:58;0.40;99.90
17442;DHT22;8838;50.144;8.176;2024-01-07T14:36:25;0.40;99.90
17442;DHT22;8838;50.144;8.176;2024-01-07T14:38:52;0.40;99.90
17442;DHT22;8838;50.144;8.176;2024-01-07T14:41:20;0.30;99.90
17442;DHT22;8838;50.144;8.176;2024-01-07T14:43:47;0.30;99.90
17442;DHT22;8838;50.144;8.176;2024-01-07T14:46:14;0.30;99.90
17442;DHT22;8838;50.144;8.176;2024-01-07T14:48:41;0.20;99.90
17442;DHT22;8838;50.144;8.176;2024-01-07T14:51:08;0.30;99.90
17442;DHT22;8838;50.144;8.176;2024-01-07T14:53:35;0.20;99.90
17442;DHT22;8838;50.144;8.176;2024-01-07T14:56:02;0.30;99.90
17442;DHT22;8838;50.144;8.176;2024-01-07T14:58:30;0.20;99.90
17442;DHT22;8838;50.144;8.176;2024-01-07T15:00:57;0.20;99.90
17442;DHT22;8838;50.144;8.176;2024-01-07T15:03:24;0.20;99.90
17442;DHT22;8838;50.144;8.176;2024-01-07T15:05:51;0.20;99.90
17442;DHT22;8838;50.144;8.176;2024-01-07T15:08:18;0.20;99.90
17442;DHT22;8838;50.144;8.176;2024-01-07T15:10:45;0.10;99.90
17442;DHT22;8838;50.144;8.176;2024-01-07T15:13:12;0.00;99.90
17442;DHT22;8838;50.144;8.176;2024-01-07T15:15:41;-0.10;99.90
17442;DHT22;8838;50.144;8.176;2024-01-07T15:18:07;-0.20;99.90
17442;DHT22;8838;50.144;8.176;2024-01-07T15:20:34;-0.20;99.90
17442;DHT22;8838;50.144;8.176;2024-01-07T15:23:01;-0.20;99.90
17442;DHT22;8838;50.144;8.176;2024-01-07T15:25:28;-0.30;99.90
17442;DHT22;8838;50.144;8.176;2024-01-07T15:27:55;-0.40;99.90
17442;DHT22;8838;50.144;8.176;2024-01-07T15:30:22;-0.40;99.90
17442;DHT22;8838;50.144;8.176;2024-01-07T15:32:51;-0.30;99.90
17442;DHT22;8838;50.144;8.176;2024-01-07T15:35:18;-0.30;99.90
17442;DHT22;8838;50.144;8.176;2024-01-07T15:37:45;-0.30;99.90
17442;DHT22;8838;50.144;8.176;2024-01-07T15:40:12;-0.40;99.90
17442;DHT22;8838;50.144;8.176;2024-01-07T15:42:39;-0.40;99.90
17442;DHT22;8838;50.144;8.176;2024-01-07T15:45:07;-0.50;99.90
17442;DHT22;8838;50.144;8.176;2024-01-07T15:47:35;-0.40;99.90
17442;DHT22;8838;50.144;8.176;2024-01-07T15:50:04;-0.60;99.90
17442;DHT22;8838;50.144;8.176;2024-01-07T15:52:31;-0.80;99.90
17442;DHT22;8838;50.144;8.176;2024-01-07T15:54:58;-0.80;99.90
17442;DHT22;8838;50.144;8.176;2024-01-07T15:57:25;-0.80;99.90
17442;DHT22;8838;50.144;8.176;2024-01-07T15:59:52;-0.90;99.90
17442;DHT22;8838;50.144;8.176;2024-01-07T16:02:19;-0.90;99.90